sensor_id;sensor_type;location;lat;lon;timestamp;pressure;altitude;pressure_sealevel;temperature;humidity
59337;BME280;45115;52.002;4.686;2022-07-17T00:01:18;102790.25;;;12.15;99.60
59337;BME280;45115;52.002;4.686;2022-07-17T00:03:45;102785.41;;;12.12;100.00
59337;BME280;45115;52.002;4.686;2022-07-17T00:06:13;102783.75;;;12.11;100.00
59337;BME280;45115;52.002;4.686;2022-07-17T00:08:40;102782.97;;;12.10;100.00
59337;BME280;45115;52.002;4.686;2022-07-17T00:11:06;102780.44;;;12.15;100.00
59337;BME280;45115;52.002;4.686;2022-07-17T00:13:33;102775.78;;;12.11;100.00
59337;BME280;45115;52.002;4.686;2022-07-17T00:16:01;102778.97;;;12.01;100.00
59337;BME280;45115;52.002;4.686;2022-07-17T00:18:28;102788.09;;;11.93;100.00
59337;BME280;45115;52.002;4.686;2022-07-17T00:20:54;102784.06;;;11.90;100.00
59337;BME280;45115;52.002;4.686;2022-07-17T00:23:21;102782.31;;;11.84;100.00
59337;BME280;45115;52.002;4.686;2022-07-17T00:25:47;102787.28;;;11.80;100.00
59337;BME280;45115;52.002;4.686;2022-07-17T00:28:14;102778.69;;;11.78;100.00
59337;BME280;45115;52.002;4.686;2022-07-17T00:30:41;102782.75;;;11.81;100.00
59337;BME280;45115;52.002;4.686;2022-07-17T00:33:09;102785.41;;;11.81;100.00
59337;BME280;45115;52.002;4.686;2022-07-17T00:35:35;102775.25;;;11.78;100.00
59337;BME280;45115;52.002;4.686;2022-07-17T00:38:02;102775.13;;;11.73;100.00
59337;BME280;45115;52.002;4.686;2022-07-17T00:40:28;102776.13;;;11.72;100.00
59337;BME280;45115;52.002;4.686;2022-07-17T00:42:55;102777.19;;;11.70;100.00
59337;BME280;45115;52.002;4.686;2022-07-17T00:45:22;102776.38;;;11.70;100.00
59337;BME280;45115;52.002;4.686;2022-07-17T00:47:54;102769.47;;;11.81;100.00
59337;BME280;45115;52.002;4.686;2022-07-17T00:50:24;102765.22;;;11.92;100.00
59337;BME280;45115;52.002;4.686;2022-07-17T00:52:51;102772.97;;;11.93;100.00
59337;BME280;45115;52.002;4.686;2022-07-17T00:55:19;102774.91;;;11.86;100.00
59337;BME280;45115;52.002;4.686;2022-07-17T00:57:47;102765.19;;;11.80;100.00
59337;BME280;45115;52.002;4.686;2022-07-17T01:00:15;102769.06;;;11.65;100.00
59337;BME280;45115;52.002;4.686;2022-07-17T01:02:45;102764.22;;;11.62;100.00
59337;BME280;45115;52.002;4.686;2022-07-17T01:05:13;102760.53;;;11.63;100.00
59337;BME280;45115;52.002;4.686;2022-07-17T01:07:41;102746.28;;;11.57;100.00
59337;BME280;45115;52.002;4.686;2022-07-17T01:10:08;102741.03;;;11.51;100.00
59337;BME280;45115;52.002;4.686;2022-07-17T01:12:35;102736.78;;;11.50;100.00
59337;BME280;45115;52.002;4.686;2022-07-17T01:15:03;102730.69;;;11.61;100.00
59337;BME280;45115;52.002;4.686;2022-07-17T01:17:30;102730.81;;;11.66;100.00
59337;BME280;45115;52.002;4.686;2022-07-17T01:19:57;102731.19;;;11.82;100.00
59337;BME280;45115;52.002;4.686;2022-07-17T01:22:25;102738.84;;;11.90;100.00
59337;BME280;45115;52.002;4.686;2022-07-17T01:24:51;102735.34;;;11.90;100.00
59337;BME280;45115;52.002;4.686;2022-07-17T01:27:18;102751.06;;;11.79;100.00
59337;BME280;45115;52.002;4.686;2022-07-17T01:29:45;102761.44;;;11.69;100.00
59337;BME280;45115;52.002;4.686;2022-07-17T01:32:11;102760.53;;;11.63;100.00
59337;BME280;45115;52.002;4.686;2022-07-17T01:34:38;102750.31;;;11.60;100.00
59337;BME280;45115;52.002;4.686;2022-07-17T01:37:05;102754.03;;;11.59;100.00
59337;BME280;45115;52.002;4.686;2022-07-17T01:39:33;102751.84;;;11.68;100.00
59337;BME280;45115;52.002;4.686;2022-07-17T01:42:16;102749.53;;;11.72;100.00
59337;BME280;45115;52.002;4.686;2022-07-17T01:44:43;102746.31;;;11.69;100.00
59337;BME280;45115;52.002;4.686;2022-07-17T01:47:13;102743.44;;;11.71;100.00
59337;BME280;45115;52.002;4.686;2022-07-17T01:49:43;102740.41;;;11.67;100.00
59337;BME280;45115;52.002;4.686;2022-07-17T01:52:09;102736.25;;;11.72;100.00
59337;BME280;45115;52.002;4.686;2022-07-17T01:54:37;102737.28;;;11.70;100.00
59337;BME280;45115;52.002;4.686;2022-07-17T01:57:04;102743.53;;;11.64;100.00
59337;BME280;45115;52.002;4.686;2022-07-17T01:59:31;102739.03;;;11.65;100.00
59337;BME280;45115;52.002;4.686;2022-07-17T02:01:57;102741.09;;;11.63;100.00
59337;BME280;45115;52.002;4.686;2022-07-17T02:04:24;102738.78;;;11.66;100.00
59337;BME280;45115;52.002;4.686;2022-07-17T02:06:52;102745.34;;;11.64;100.00
59337;BME280;45115;52.002;4.686;2022-07-17T02:09:19;102745.91;;;11.54;100.00
59337;BME280;45115;52.002;4.686;2022-07-17T02:11:47;102749.13;;;11.44;100.00
59337;BME280;45115;52.002;4.686;2022-07-17T02:14:14;102749.00;;;11.39;100.00
59337;BME280;45115;52.002;4.686;2022-07-17T02:16:41;102743.81;;;11.44;100.00
59337;BME280;45115;52.002;4.686;2022-07-17T02:19:08;102744.72;;;11.38;100.00
59337;BME280;45115;52.002;4.686;2022-07-17T02:21:34;102748.31;;;11.43;100.00
59337;BME280;45115;52.002;4.686;2022-07-17T02:24:01;102748.75;;;11.40;100.00
59337;BME280;45115;52.002;4.686;2022-07-17T02:26:27;102743.78;;;11.32;100.00
59337;BME280;45115;52.002;4.686;2022-07-17T02:28:55;102739.50;;;11.31;100.00
59337;BME280;45115;52.002;4.686;2022-07-17T02:31:22;102735.94;;;11.37;100.00
59337;BME280;45115;52.002;4.686;2022-07-17T02:33:48;102741.03;;;11.51;100.00
59337;BME280;45115;52.002;4.686;2022-07-17T02:36:15;102740.69;;;11.47;100.00
59337;BME280;45115;52.002;4.686;2022-07-17T02:38:42;102748.22;;;11.50;100.00
59337;BME280;45115;52.002;4.686;2022-07-17T02:41:08;102754.19;;;11.46;100.00
59337;BME280;45115;52.002;4.686;2022-07-17T02:43:35;102752.00;;;11.42;100.00
59337;BME280;45115;52.002;4.686;2022-07-17T02:46:04;102753.72;;;11.37;100.00
59337;BME280;45115;52.002;4.686;2022-07-17T02:48:31;102764.25;;;11.43;100.00
59337;BME280;45115;52.002;4.686;2022-07-17T02:50:57;102756.97;;;11.39;100.00
59337;BME280;45115;52.002;4.686;2022-07-17T02:53:24;102758.25;;;11.36;100.00
59337;BME280;45115;52.002;4.686;2022-07-17T02:55:51;102765.75;;;11.39;100.00
59337;BME280;45115;52.002;4.686;2022-07-17T02:58:18;102778.25;;;11.39;100.00
59337;BME280;45115;52.002;4.686;2022-07-17T03:00:44;102772.31;;;11.37;100.00
59337;BME280;45115;52.002;4.686;2022-07-17T03:03:12;102770.78;;;11.29;100.00
59337;BME280;45115;52.002;4.686;2022-07-17T03:05:39;102768.88;;;11.18;100.00
59337;BME280;45115;52.002;4.686;2022-07-17T03:08:06;102781.72;;;11.21;100.00
59337;BME280;45115;52.002;4.686;2022-07-17T03:10:32;102784.38;;;11.21;100.00
59337;BME280;45115;52.002;4.686;2022-07-17T03:12:59;102777.91;;;11.16;100.00
59337;BME280;45115;52.002;4.686;2022-07-17T03:15:26;102767.34;;;11.10;100.00
59337;BME280;45115;52.002;4.686;2022-07-17T03:17:52;102766.97;;;11.06;100.00
59337;BME280;45115;52.002;4.686;2022-07-17T03:20:20;102770.50;;;11.19;100.00
59337;BME280;45115;52.002;4.686;2022-07-17T03:22:47;102773.53;;;11.22;100.00
59337;BME280;45115;52.002;4.686;2022-07-17T03:25:13;102764.75;;;11.22;100.00
59337;BME280;45115;52.002;4.686;2022-07-17T03:27:40;102773.22;;;11.30;100.00
59337;BME280;45115;52.002;4.686;2022-07-17T03:30:07;102770.22;;;11.27;100.00
59337;BME280;45115;52.002;4.686;2022-07-17T03:32:34;102771.31;;;11.19;100.00
59337;BME280;45115;52.002;4.686;2022-07-17T03:35:01;102762.63;;;11.12;100.00
59337;BME280;45115;52.002;4.686;2022-07-17T03:37:29;102770.91;;;11.03;100.00
59337;BME280;45115;52.002;4.686;2022-07-17T03:39:56;102765.66;;;10.97;100.00
59337;BME280;45115;52.002;4.686;2022-07-17T03:42:22;102777.75;;;11.11;100.00
59337;BME280;45115;52.002;4.686;2022-07-17T03:44:49;102780.41;;;11.11;100.00
59337;BME280;45115;52.002;4.686;2022-07-17T03:47:15;102777.69;;;11.18;100.00
59337;BME280;45115;52.002;4.686;2022-07-17T03:49:42;102772.03;;;11.26;100.00
59337;BME280;45115;52.002;4.686;2022-07-17T03:52:09;102775.31;;;11.28;100.00
59337;BME280;45115;52.002;4.686;2022-07-17T03:54:37;102777.63;;;11.37;100.00
59337;BME280;45115;52.002;4.686;2022-07-17T03:57:04;102765.56;;;11.53;100.00
59337;BME280;45115;52.002;4.686;2022-07-17T03:59:31;102763.88;;;11.70;100.00
59337;BME280;45115;52.002;4.686;2022-07-17T04:01:57;102766.66;;;11.76;99.55
59337;BME280;45115;52.002;4.686;2022-07-17T04:04:24;102766.81;;;11.93;98.31
59337;BME280;45115;52.002;4.686;2022-07-17T04:06:50;102774.38;;;12.08;97.26
59337;BME280;45115;52.002;4.686;2022-07-17T04:09:17;102780.16;;;12.17;96.03
59337;BME280;45115;52.002;4.686;2022-07-17T04:11:45;102781.00;;;12.17;95.60
59337;BME280;45115;52.002;4.686;2022-07-17T04:14:11;102776.59;;;12.11;95.77
59337;BME280;45115;52.002;4.686;2022-07-17T04:16:38;102781.34;;;12.09;96.00
59337;BME280;45115;52.002;4.686;2022-07-17T04:19:05;102779.25;;;12.11;96.35
59337;BME280;45115;52.002;4.686;2022-07-17T04:21:31;102783.66;;;12.17;95.95
59337;BME280;45115;52.002;4.686;2022-07-17T04:23:58;102785.84;;;12.32;95.28
59337;BME280;45115;52.002;4.686;2022-07-17T04:26:24;102787.34;;;12.40;93.95
59337;BME280;45115;52.002;4.686;2022-07-17T04:28:52;102791.31;;;12.49;93.25
59337;BME280;45115;52.002;4.686;2022-07-17T04:31:19;102790.03;;;12.52;92.58
59337;BME280;45115;52.002;4.686;2022-07-17T04:33:46;102796.75;;;12.55;92.50
59337;BME280;45115;52.002;4.686;2022-07-17T04:36:12;102801.03;;;12.56;93.00
59337;BME280;45115;52.002;4.686;2022-07-17T04:38:39;102805.06;;;12.58;93.00
59337;BME280;45115;52.002;4.686;2022-07-17T04:41:05;102802.66;;;12.57;93.21
59337;BME280;45115;52.002;4.686;2022-07-17T04:43:32;102798.47;;;12.61;93.09
59337;BME280;45115;52.002;4.686;2022-07-17T04:46:00;102780.31;;;12.70;92.84
59337;BME280;45115;52.002;4.686;2022-07-17T04:48:26;102783.97;;;13.22;91.48
59337;BME280;45115;52.002;4.686;2022-07-17T04:50:53;102777.66;;;13.40;89.33
59337;BME280;45115;52.002;4.686;2022-07-17T04:53:20;102774.09;;;13.34;88.98
59337;BME280;45115;52.002;4.686;2022-07-17T04:55:46;102772.84;;;13.25;89.20
59337;BME280;45115;52.002;4.686;2022-07-17T04:58:13;102776.66;;;13.29;89.11
59337;BME280;45115;52.002;4.686;2022-07-17T05:00:39;102782.75;;;13.41;89.00
59337;BME280;45115;52.002;4.686;2022-07-17T05:03:07;102788.06;;;13.53;87.98
59337;BME280;45115;52.002;4.686;2022-07-17T05:05:34;102778.31;;;13.59;87.59
59337;BME280;45115;52.002;4.686;2022-07-17T05:08:00;102779.84;;;13.72;86.11
59337;BME280;45115;52.002;4.686;2022-07-17T05:10:27;102769.34;;;13.82;85.39
59337;BME280;45115;52.002;4.686;2022-07-17T05:12:54;102774.06;;;13.92;85.05
59337;BME280;45115;52.002;4.686;2022-07-17T05:15:20;102780.09;;;14.05;84.43
59337;BME280;45115;52.002;4.686;2022-07-17T05:17:47;102785.84;;;14.14;84.54
59337;BME280;45115;52.002;4.686;2022-07-17T05:20:15;102793.53;;;14.27;83.79
59337;BME280;45115;52.002;4.686;2022-07-17T05:22:41;102783.91;;;14.43;82.72
59337;BME280;45115;52.002;4.686;2022-07-17T05:25:09;102781.03;;;14.50;82.02
59337;BME280;45115;52.002;4.686;2022-07-17T05:27:35;102776.63;;;15.83;78.65
59337;BME280;45115;52.002;4.686;2022-07-17T05:30:02;102788.63;;;17.15;73.38
59337;BME280;45115;52.002;4.686;2022-07-17T05:32:29;102792.44;;;17.87;70.00
59337;BME280;45115;52.002;4.686;2022-07-17T05:34:56;102797.50;;;19.11;70.48
59337;BME280;45115;52.002;4.686;2022-07-17T05:37:24;102804.84;;;20.10;67.56
59337;BME280;45115;52.002;4.686;2022-07-17T05:39:50;102808.81;;;20.67;58.23
59337;BME280;45115;52.002;4.686;2022-07-17T05:42:17;102817.50;;;21.27;56.89
59337;BME280;45115;52.002;4.686;2022-07-17T05:44:43;102814.44;;;21.86;57.79
59337;BME280;45115;52.002;4.686;2022-07-17T05:47:10;102812.59;;;22.42;55.86
59337;BME280;45115;52.002;4.686;2022-07-17T05:49:37;102809.19;;;22.65;50.82
59337;BME280;45115;52.002;4.686;2022-07-17T05:52:04;102817.31;;;23.16;49.54
59337;BME280;45115;52.002;4.686;2022-07-17T05:54:32;102813.03;;;23.38;48.79
59337;BME280;45115;52.002;4.686;2022-07-17T05:56:58;102812.94;;;23.43;49.39
59337;BME280;45115;52.002;4.686;2022-07-17T05:59:25;102813.22;;;23.96;47.96
59337;BME280;45115;52.002;4.686;2022-07-17T06:01:52;102814.34;;;24.35;46.47
59337;BME280;45115;52.002;4.686;2022-07-17T06:04:18;102817.97;;;24.80;46.87
59337;BME280;45115;52.002;4.686;2022-07-17T06:06:45;102819.78;;;25.11;44.47
59337;BME280;45115;52.002;4.686;2022-07-17T06:09:11;102829.19;;;25.58;44.30
59337;BME280;45115;52.002;4.686;2022-07-17T06:11:39;102835.19;;;26.20;41.28
59337;BME280;45115;52.002;4.686;2022-07-17T06:14:06;102830.22;;;25.83;39.39
59337;BME280;45115;52.002;4.686;2022-07-17T06:16:33;102837.97;;;25.55;40.15
59337;BME280;45115;52.002;4.686;2022-07-17T06:18:59;102843.09;;;25.56;42.33
59337;BME280;45115;52.002;4.686;2022-07-17T06:21:26;102845.00;;;25.56;40.65
59337;BME280;45115;52.002;4.686;2022-07-17T06:23:53;102847.06;;;25.32;40.66
59337;BME280;45115;52.002;4.686;2022-07-17T06:26:19;102854.44;;;25.41;41.36
59337;BME280;45115;52.002;4.686;2022-07-17T06:28:47;102856.19;;;25.54;40.55
59337;BME280;45115;52.002;4.686;2022-07-17T06:31:14;102854.06;;;25.78;39.19
59337;BME280;45115;52.002;4.686;2022-07-17T06:33:40;102852.22;;;26.08;39.63
59337;BME280;45115;52.002;4.686;2022-07-17T06:36:07;102852.06;;;26.44;39.50
59337;BME280;45115;52.002;4.686;2022-07-17T06:38:34;102861.56;;;26.89;38.13
59337;BME280;45115;52.002;4.686;2022-07-17T06:41:01;102848.94;;;26.33;37.98
59337;BME280;45115;52.002;4.686;2022-07-17T06:43:28;102858.78;;;26.46;38.00
59337;BME280;45115;52.002;4.686;2022-07-17T06:45:56;102858.72;;;26.64;36.44
59337;BME280;45115;52.002;4.686;2022-07-17T06:48:23;102872.84;;;26.78;35.88
59337;BME280;45115;52.002;4.686;2022-07-17T06:50:50;102870.19;;;26.70;35.70
59337;BME280;45115;52.002;4.686;2022-07-17T06:53:17;102869.63;;;26.25;36.02
59337;BME280;45115;52.002;4.686;2022-07-17T06:55:43;102874.94;;;26.51;36.44
59337;BME280;45115;52.002;4.686;2022-07-17T06:58:10;102862.63;;;26.75;36.94
59337;BME280;45115;52.002;4.686;2022-07-17T07:00:37;102865.78;;;27.08;36.79
59337;BME280;45115;52.002;4.686;2022-07-17T07:03:05;102870.84;;;27.18;36.68
59337;BME280;45115;52.002;4.686;2022-07-17T07:05:32;102867.63;;;27.37;35.50
59337;BME280;45115;52.002;4.686;2022-07-17T07:07:59;102874.81;;;27.21;34.44
59337;BME280;45115;52.002;4.686;2022-07-17T07:10:26;102883.22;;;26.64;35.51
59337;BME280;45115;52.002;4.686;2022-07-17T07:12:53;102878.47;;;26.52;35.99
59337;BME280;45115;52.002;4.686;2022-07-17T07:15:20;102879.34;;;26.35;35.47
59337;BME280;45115;52.002;4.686;2022-07-17T07:17:46;102875.63;;;26.00;35.95
59337;BME280;45115;52.002;4.686;2022-07-17T07:20:14;102879.78;;;25.98;36.78
59337;BME280;45115;52.002;4.686;2022-07-17T07:22:41;102884.38;;;26.06;36.27
59337;BME280;45115;52.002;4.686;2022-07-17T07:25:08;102875.84;;;26.25;37.09
59337;BME280;45115;52.002;4.686;2022-07-17T07:27:35;102879.16;;;26.70;36.76
59337;BME280;45115;52.002;4.686;2022-07-17T07:30:03;102883.47;;;27.01;35.52
59337;BME280;45115;52.002;4.686;2022-07-17T07:32:29;102877.13;;;27.31;35.96
59337;BME280;45115;52.002;4.686;2022-07-17T07:34:56;102873.00;;;27.80;35.27
59337;BME280;45115;52.002;4.686;2022-07-17T07:37:24;102876.31;;;27.52;34.11
59337;BME280;45115;52.002;4.686;2022-07-17T07:39:50;102866.66;;;27.21;34.78
59337;BME280;45115;52.002;4.686;2022-07-17T07:42:17;102871.44;;;27.24;35.25
59337;BME280;45115;52.002;4.686;2022-07-17T07:44:44;102869.84;;;27.56;35.62
59337;BME280;45115;52.002;4.686;2022-07-17T07:47:10;102860.50;;;27.91;35.74
59337;BME280;45115;52.002;4.686;2022-07-17T07:49:37;102866.16;;;28.32;34.33
59337;BME280;45115;52.002;4.686;2022-07-17T07:52:04;102861.38;;;27.37;34.48
59337;BME280;45115;52.002;4.686;2022-07-17T07:54:32;102862.44;;;26.80;35.87
59337;BME280;45115;52.002;4.686;2022-07-17T07:56:59;102868.19;;;26.58;36.40
59337;BME280;45115;52.002;4.686;2022-07-17T07:59:26;102869.91;;;26.32;36.58
59337;BME280;45115;52.002;4.686;2022-07-17T08:01:52;102865.19;;;26.50;37.12
59337;BME280;45115;52.002;4.686;2022-07-17T08:04:19;102864.03;;;26.21;37.56
59337;BME280;45115;52.002;4.686;2022-07-17T08:06:45;102865.41;;;26.36;36.88
59337;BME280;45115;52.002;4.686;2022-07-17T08:09:12;102862.25;;;26.56;36.63
59337;BME280;45115;52.002;4.686;2022-07-17T08:11:40;102860.94;;;26.23;36.92
59337;BME280;45115;52.002;4.686;2022-07-17T08:14:07;102864.31;;;26.29;36.71
59337;BME280;45115;52.002;4.686;2022-07-17T08:16:33;102857.53;;;26.44;36.78
59337;BME280;45115;52.002;4.686;2022-07-17T08:19:00;102853.34;;;26.07;37.56
59337;BME280;45115;52.002;4.686;2022-07-17T08:21:27;102851.69;;;25.67;37.79
59337;BME280;45115;52.002;4.686;2022-07-17T08:23:54;102847.72;;;25.38;38.61
59337;BME280;45115;52.002;4.686;2022-07-17T08:26:20;102848.03;;;25.10;38.79
59337;BME280;45115;52.002;4.686;2022-07-17T08:28:48;102846.28;;;24.97;40.12
59337;BME280;45115;52.002;4.686;2022-07-17T08:31:15;102843.09;;;25.21;40.00
59337;BME280;45115;52.002;4.686;2022-07-17T08:33:42;102841.66;;;25.15;40.17
59337;BME280;45115;52.002;4.686;2022-07-17T08:36:08;102847.22;;;25.27;39.60
59337;BME280;45115;52.002;4.686;2022-07-17T08:38:35;102841.66;;;25.24;39.51
59337;BME280;45115;52.002;4.686;2022-07-17T08:41:01;102841.34;;;25.25;38.73
59337;BME280;45115;52.002;4.686;2022-07-17T08:43:29;102834.75;;;25.35;38.73
59337;BME280;45115;52.002;4.686;2022-07-17T08:45:58;102839.53;;;25.65;38.20
59337;BME280;45115;52.002;4.686;2022-07-17T08:48:26;102838.09;;;25.76;38.29
59337;BME280;45115;52.002;4.686;2022-07-17T08:50:52;102851.06;;;26.18;36.94
59337;BME280;45115;52.002;4.686;2022-07-17T08:53:21;102849.41;;;26.65;37.02
59337;BME280;45115;52.002;4.686;2022-07-17T08:55:47;102842.56;;;26.80;35.05
59337;BME280;45115;52.002;4.686;2022-07-17T08:58:15;102842.88;;;27.09;35.08
59337;BME280;45115;52.002;4.686;2022-07-17T09:00:42;102843.63;;;27.30;34.17
59337;BME280;45115;52.002;4.686;2022-07-17T09:03:10;102848.31;;;27.30;34.95
59337;BME280;45115;52.002;4.686;2022-07-17T09:05:39;102847.97;;;27.10;33.98
59337;BME280;45115;52.002;4.686;2022-07-17T09:08:07;102839.31;;;27.29;33.74
59337;BME280;45115;52.002;4.686;2022-07-17T09:10:37;102840.53;;;26.77;34.69
59337;BME280;45115;52.002;4.686;2022-07-17T09:13:16;102844.22;;;26.72;34.06
59337;BME280;45115;52.002;4.686;2022-07-17T09:15:43;102851.81;;;26.88;33.96
59337;BME280;45115;52.002;4.686;2022-07-17T09:18:11;102845.66;;;27.00;34.19
59337;BME280;45115;52.002;4.686;2022-07-17T09:20:43;102843.41;;;27.36;33.77
59337;BME280;45115;52.002;4.686;2022-07-17T09:23:11;102847.94;;;26.67;35.37
59337;BME280;45115;52.002;4.686;2022-07-17T09:25:39;102841.94;;;26.53;36.17
59337;BME280;45115;52.002;4.686;2022-07-17T09:28:08;102846.50;;;26.70;35.50
59337;BME280;45115;52.002;4.686;2022-07-17T09:30:37;102848.19;;;27.05;34.83
59337;BME280;45115;52.002;4.686;2022-07-17T09:33:07;102849.41;;;26.86;35.46
59337;BME280;45115;52.002;4.686;2022-07-17T09:35:45;102845.66;;;27.21;34.62
59337;BME280;45115;52.002;4.686;2022-07-17T09:38:13;102839.19;;;27.04;33.38
59337;BME280;45115;52.002;4.686;2022-07-17T09:41:03;102841.00;;;27.22;35.11
59337;BME280;45115;52.002;4.686;2022-07-17T09:43:42;102839.72;;;26.76;35.85
59337;BME280;45115;52.002;4.686;2022-07-17T09:46:12;102840.53;;;27.19;36.11
59337;BME280;45115;52.002;4.686;2022-07-17T09:48:42;102840.66;;;27.23;35.10
59337;BME280;45115;52.002;4.686;2022-07-17T09:51:18;102843.72;;;26.19;35.03
59337;BME280;45115;52.002;4.686;2022-07-17T09:53:46;102838.84;;;26.33;35.22
59337;BME280;45115;52.002;4.686;2022-07-17T09:56:15;102836.47;;;26.83;35.01
59337;BME280;45115;52.002;4.686;2022-07-17T09:58:44;102834.75;;;27.21;34.01
59337;BME280;45115;52.002;4.686;2022-07-17T10:01:13;102833.22;;;27.11;35.28
59337;BME280;45115;52.002;4.686;2022-07-17T10:03:40;102833.22;;;27.11;35.07
59337;BME280;45115;52.002;4.686;2022-07-17T10:06:07;102828.19;;;27.22;34.42
59337;BME280;45115;52.002;4.686;2022-07-17T10:08:38;102838.25;;;26.58;34.76
59337;BME280;45115;52.002;4.686;2022-07-17T10:11:05;102829.19;;;25.58;36.43
59337;BME280;45115;52.002;4.686;2022-07-17T10:13:33;102832.38;;;25.42;38.49
59337;BME280;45115;52.002;4.686;2022-07-17T10:16:00;102827.22;;;25.67;38.01
59337;BME280;45115;52.002;4.686;2022-07-17T10:18:37;102835.91;;;26.47;37.20
59337;BME280;45115;52.002;4.686;2022-07-17T10:21:17;102836.84;;;27.03;36.69
59337;BME280;45115;52.002;4.686;2022-07-17T10:24:06;102831.41;;;26.73;35.30
59337;BME280;45115;52.002;4.686;2022-07-17T10:26:35;102835.41;;;27.18;35.61
59337;BME280;45115;52.002;4.686;2022-07-17T10:29:07;102841.84;;;26.92;35.38
59337;BME280;45115;52.002;4.686;2022-07-17T10:31:34;102839.28;;;27.17;34.73
59337;BME280;45115;52.002;4.686;2022-07-17T10:34:05;102850.75;;;26.80;35.40
59337;BME280;45115;52.002;4.686;2022-07-17T10:36:34;102844.56;;;26.92;35.63
59337;BME280;45115;52.002;4.686;2022-07-17T10:39:12;102847.34;;;27.13;36.37
59337;BME280;45115;52.002;4.686;2022-07-17T10:41:39;102848.66;;;27.41;34.88
59337;BME280;45115;52.002;4.686;2022-07-17T10:44:05;102849.22;;;27.34;34.13
59337;BME280;45115;52.002;4.686;2022-07-17T10:46:32;102843.69;;;27.77;33.98
59337;BME280;45115;52.002;4.686;2022-07-17T10:49:00;102848.25;;;28.10;33.97
59337;BME280;45115;52.002;4.686;2022-07-17T10:51:29;102847.59;;;28.38;33.54
59337;BME280;45115;52.002;4.686;2022-07-17T10:53:56;102847.22;;;28.64;33.35
59337;BME280;45115;52.002;4.686;2022-07-17T10:56:26;102848.13;;;28.69;32.61
59337;BME280;45115;52.002;4.686;2022-07-17T10:58:53;102845.88;;;28.46;33.50
59337;BME280;45115;52.002;4.686;2022-07-17T11:01:26;102853.97;;;28.42;34.02
59337;BME280;45115;52.002;4.686;2022-07-17T11:03:57;102849.16;;;28.64;33.00
59337;BME280;45115;52.002;4.686;2022-07-17T11:06:26;102844.69;;;28.84;32.61
59337;BME280;45115;52.002;4.686;2022-07-17T11:08:55;102849.25;;;28.68;31.65
59337;BME280;45115;52.002;4.686;2022-07-17T11:11:34;102843.16;;;28.46;33.05
59337;BME280;45115;52.002;4.686;2022-07-17T11:14:13;102848.97;;;28.32;33.31
59337;BME280;45115;52.002;4.686;2022-07-17T11:16:44;102842.69;;;28.56;33.89
59337;BME280;45115;52.002;4.686;2022-07-17T11:19:12;102851.88;;;28.64;33.79
59337;BME280;45115;52.002;4.686;2022-07-17T11:21:49;102840.78;;;28.98;32.48
59337;BME280;45115;52.002;4.686;2022-07-17T11:24:16;102827.25;;;28.35;32.59
59337;BME280;45115;52.002;4.686;2022-07-17T11:26:44;102838.81;;;27.49;34.50
59337;BME280;45115;52.002;4.686;2022-07-17T11:29:12;102831.53;;;27.74;34.92
59337;BME280;45115;52.002;4.686;2022-07-17T11:31:40;102829.84;;;28.19;34.65
59337;BME280;45115;52.002;4.686;2022-07-17T11:34:09;102830.50;;;28.54;33.28
59337;BME280;45115;52.002;4.686;2022-07-17T11:36:38;102826.88;;;27.99;34.18
59337;BME280;45115;52.002;4.686;2022-07-17T11:39:08;102819.50;;;28.00;33.34
59337;BME280;45115;52.002;4.686;2022-07-17T11:41:37;102837.59;;;28.42;33.64
59337;BME280;45115;52.002;4.686;2022-07-17T11:44:08;102839.91;;;28.81;33.22
59337;BME280;45115;52.002;4.686;2022-07-17T11:46:36;102843.94;;;29.00;33.25
59337;BME280;45115;52.002;4.686;2022-07-17T11:49:03;102834.38;;;28.52;31.47
59337;BME280;45115;52.002;4.686;2022-07-17T11:51:38;102840.78;;;28.32;31.65
59337;BME280;45115;52.002;4.686;2022-07-17T11:54:06;102842.00;;;28.09;30.15
59337;BME280;45115;52.002;4.686;2022-07-17T11:56:33;102844.59;;;28.18;30.03
59337;BME280;45115;52.002;4.686;2022-07-17T11:59:00;102844.72;;;27.17;30.41
59337;BME280;45115;52.002;4.686;2022-07-17T12:01:36;102846.22;;;27.27;32.37
59337;BME280;45115;52.002;4.686;2022-07-17T12:04:04;102847.00;;;26.93;31.65
59337;BME280;45115;52.002;4.686;2022-07-17T12:06:31;102837.09;;;27.10;32.00
59337;BME280;45115;52.002;4.686;2022-07-17T12:08:57;102834.88;;;27.58;33.04
59337;BME280;45115;52.002;4.686;2022-07-17T12:11:24;102828.00;;;27.40;33.60
59337;BME280;45115;52.002;4.686;2022-07-17T12:13:51;102822.25;;;27.54;32.00
59337;BME280;45115;52.002;4.686;2022-07-17T12:16:26;102830.69;;;27.27;33.00
59337;BME280;45115;52.002;4.686;2022-07-17T12:19:06;102810.53;;;27.87;31.17
59337;BME280;45115;52.002;4.686;2022-07-17T12:21:46;102820.63;;;27.74;30.87
59337;BME280;45115;52.002;4.686;2022-07-17T12:24:19;102822.06;;;27.59;31.33
59337;BME280;45115;52.002;4.686;2022-07-17T12:26:45;102811.19;;;27.38;31.09
59337;BME280;45115;52.002;4.686;2022-07-17T12:29:12;102812.88;;;27.76;31.59
59337;BME280;45115;52.002;4.686;2022-07-17T12:31:39;102801.59;;;27.19;30.96
59337;BME280;45115;52.002;4.686;2022-07-17T12:34:07;102800.97;;;27.47;29.88
59337;BME280;45115;52.002;4.686;2022-07-17T12:36:33;102794.59;;;28.02;30.80
59337;BME280;45115;52.002;4.686;2022-07-17T12:39:00;102804.06;;;28.83;28.03
59337;BME280;45115;52.002;4.686;2022-07-17T12:41:27;102796.78;;;27.96;28.07
59337;BME280;45115;52.002;4.686;2022-07-17T12:43:53;102801.09;;;27.97;29.33
59337;BME280;45115;52.002;4.686;2022-07-17T12:46:20;102795.16;;;28.45;29.52
59337;BME280;45115;52.002;4.686;2022-07-17T12:48:46;102793.28;;;28.61;29.06
59337;BME280;45115;52.002;4.686;2022-07-17T12:51:15;102798.56;;;28.95;29.00